createdAt,value
2023-05-13T00:00:37.050Z,39.72
2023-05-13T00:01:37.107Z,39.72
2023-05-13T00:02:37.241Z,39.72
2023-05-13T00:03:37.304Z,39.73
2023-05-13T00:04:37.266Z,39.71
2023-05-13T00:05:37.354Z,39.72
2023-05-13T00:06:37.529Z,39.71
2023-05-13T00:07:37.497Z,39.74
2023-05-13T00:08:37.475Z,39.74
2023-05-13T00:09:37.525Z,39.73
2023-05-13T00:10:37.580Z,39.72
2023-05-13T00:11:37.644Z,39.74
2023-05-13T00:12:38.074Z,39.73
2023-05-13T00:13:37.736Z,39.74
2023-05-13T00:14:37.786Z,39.74
2023-05-13T00:15:37.837Z,39.74
2023-05-13T00:16:38.790Z,39.75
2023-05-13T00:17:38.013Z,39.74
2023-05-13T00:18:37.997Z,39.77
2023-05-13T00:19:38.011Z,39.78
2023-05-13T00:20:38.050Z,39.76
2023-05-13T00:21:38.103Z,39.76
2023-05-13T00:22:38.151Z,39.78
2023-05-13T00:23:38.192Z,39.77
2023-05-13T00:24:38.228Z,39.78
2023-05-13T00:25:38.275Z,39.74
2023-05-13T00:26:39.640Z,39.75
2023-05-13T00:27:38.362Z,39.77
2023-05-13T00:28:38.418Z,39.77
2023-05-13T00:29:38.464Z,39.77
2023-05-13T00:30:40.584Z,39.75
2023-05-13T00:31:38.555Z,39.75
2023-05-13T00:32:38.697Z,39.77
2023-05-13T00:33:38.636Z,39.79
2023-05-13T00:34:38.691Z,39.78
2023-05-13T00:35:38.745Z,39.77
2023-05-13T00:36:38.804Z,39.79
2023-05-13T00:37:38.842Z,39.78
2023-05-13T00:38:38.893Z,39.80
2023-05-13T00:39:38.939Z,39.79
2023-05-13T00:40:38.992Z,39.77
2023-05-13T00:41:39.047Z,39.79
2023-05-13T00:42:39.104Z,39.77
2023-05-13T00:43:39.168Z,39.78
2023-05-13T00:44:39.219Z,39.78
2023-05-13T00:45:39.292Z,39.80
2023-05-13T00:46:39.308Z,39.77
2023-05-13T00:47:39.389Z,39.80
2023-05-13T00:48:39.441Z,39.79
2023-05-13T00:49:39.461Z,39.78
2023-05-13T00:50:39.522Z,39.79
2023-05-13T00:51:39.584Z,39.79
2023-05-13T00:52:39.614Z,39.78
2023-05-13T00:53:39.654Z,39.80
2023-05-13T00:54:39.700Z,39.78
2023-05-13T00:55:39.760Z,39.78
2023-05-13T00:56:39.838Z,39.79
2023-05-13T00:57:39.866Z,39.79
2023-05-13T00:58:39.922Z,39.79
2023-05-13T00:59:40.332Z,39.78
2023-05-13T01:00:40.038Z,39.79
2023-05-13T01:01:40.123Z,39.80
2023-05-13T01:02:40.176Z,39.79
2023-05-13T01:03:40.229Z,39.79
2023-05-13T01:04:40.238Z,39.78
2023-05-13T01:05:40.301Z,39.83
2023-05-13T01:06:41.297Z,39.80
2023-05-13T01:07:40.305Z,39.82
2023-05-13T01:08:40.303Z,39.80
2023-05-13T01:09:40.304Z,39.82
2023-05-13T01:10:40.307Z,39.83
2023-05-13T01:11:40.327Z,39.81
2023-05-13T01:12:40.314Z,39.81
2023-05-13T01:13:40.325Z,39.81
2023-05-13T01:14:40.318Z,39.81
2023-05-13T01:15:40.331Z,39.82
2023-05-13T01:16:40.351Z,39.80
2023-05-13T01:17:40.349Z,39.85
2023-05-13T01:18:40.407Z,39.84
2023-05-13T01:19:40.348Z,39.82
2023-05-13T01:20:40.411Z,39.83
2023-05-13T01:21:40.448Z,39.83
2023-05-13T01:22:40.536Z,39.82
2023-05-13T01:23:40.551Z,39.81
2023-05-13T01:24:40.658Z,39.83
2023-05-13T01:25:40.656Z,39.83
2023-05-13T01:26:42.616Z,39.85
2023-05-13T01:27:40.767Z,39.83
2023-05-13T01:28:40.834Z,39.84
2023-05-13T01:29:40.892Z,39.83
2023-05-13T01:30:40.938Z,39.83
2023-05-13T01:31:41.062Z,39.85
2023-05-13T01:32:41.130Z,39.82
2023-05-13T01:33:41.095Z,39.84
2023-05-13T01:34:41.119Z,39.84
2023-05-13T01:35:41.186Z,39.85
2023-05-13T01:36:41.237Z,39.85
2023-05-13T01:37:41.293Z,39.85
2023-05-13T01:38:41.347Z,39.85
2023-05-13T01:39:41.402Z,39.84
2023-05-13T01:40:41.453Z,39.87
2023-05-13T01:41:41.510Z,39.87
2023-05-13T01:42:41.580Z,39.85
2023-05-13T01:43:41.640Z,39.84
2023-05-13T01:44:41.699Z,39.85
2023-05-13T01:45:41.770Z,39.88
2023-05-13T01:46:41.848Z,39.85
2023-05-13T01:47:41.944Z,39.84
2023-05-13T01:48:41.955Z,39.85
2023-05-13T01:49:42.029Z,39.87
2023-05-13T01:50:42.081Z,39.86
2023-05-13T01:51:42.136Z,39.88
2023-05-13T01:52:42.223Z,39.86
2023-05-13T01:53:42.280Z,39.86
2023-05-13T01:54:42.333Z,39.86
2023-05-13T01:55:42.397Z,39.89
2023-05-13T01:56:42.460Z,39.88
2023-05-13T01:57:42.521Z,39.87
2023-05-13T01:58:42.569Z,39.89
2023-05-13T01:59:42.643Z,39.87
2023-05-13T02:00:42.684Z,39.88
2023-05-13T02:01:44.617Z,39.87
2023-05-13T02:02:43.031Z,39.89
2023-05-13T02:03:42.885Z,39.87
2023-05-13T02:04:42.911Z,39.89
2023-05-13T02:05:42.973Z,39.88
2023-05-13T02:06:43.034Z,39.89
2023-05-13T02:07:44.056Z,39.88
2023-05-13T02:08:43.145Z,39.89
2023-05-13T02:09:43.208Z,39.89
2023-05-13T02:10:43.264Z,39.88
2023-05-13T02:11:43.331Z,39.88
2023-05-13T02:12:43.391Z,39.88
2023-05-13T02:13:44.282Z,39.88
2023-05-13T02:14:43.504Z,39.90
2023-05-13T02:15:43.568Z,39.91
2023-05-13T02:16:43.669Z,39.89
2023-05-13T02:17:43.745Z,39.89
2023-05-13T02:18:43.812Z,39.91
2023-05-13T02:19:43.805Z,39.90
2023-05-13T02:20:43.887Z,39.88
2023-05-13T02:21:43.928Z,39.89
2023-05-13T02:22:43.999Z,39.90
2023-05-13T02:23:44.056Z,39.90
2023-05-13T02:24:44.112Z,39.90
2023-05-13T02:25:44.177Z,39.90
2023-05-13T02:26:44.240Z,39.89
2023-05-13T02:27:44.313Z,39.88
2023-05-13T02:28:44.381Z,39.90
2023-05-13T02:29:44.417Z,39.90
2023-05-13T02:30:44.468Z,39.89
2023-05-13T02:31:44.588Z,39.93
2023-05-13T02:32:44.621Z,39.91
2023-05-13T02:33:44.674Z,39.89
2023-05-13T02:34:44.739Z,39.93
2023-05-13T02:35:44.785Z,39.91
2023-05-13T02:36:44.845Z,39.90
2023-05-13T02:37:44.916Z,39.88
2023-05-13T02:38:44.984Z,39.89
2023-05-13T02:39:45.044Z,39.91
2023-05-13T02:40:45.094Z,39.94
2023-05-13T02:41:45.142Z,39.95
2023-05-13T02:42:45.201Z,39.95
2023-05-13T02:43:45.258Z,39.93
2023-05-13T02:44:45.308Z,39.93
2023-05-13T02:45:45.415Z,39.93
2023-05-13T02:46:45.622Z,39.93
2023-05-13T02:47:45.499Z,39.93
2023-05-13T02:48:45.554Z,39.94
2023-05-13T02:49:45.618Z,39.92
2023-05-13T02:50:45.657Z,39.95
2023-05-13T02:51:45.730Z,39.95
2023-05-13T02:52:45.798Z,39.94
2023-05-13T02:53:45.822Z,39.94
2023-05-13T02:54:45.887Z,39.94
2023-05-13T02:55:45.887Z,39.93
2023-05-13T02:56:45.917Z,39.96
2023-05-13T02:57:45.983Z,39.94
2023-05-13T02:58:46.049Z,39.96
2023-05-13T02:59:46.123Z,39.95
2023-05-13T03:00:46.173Z,39.96
2023-05-13T03:01:46.253Z,39.93
2023-05-13T03:02:46.409Z,39.95
2023-05-13T03:03:46.383Z,39.94
2023-05-13T03:04:46.412Z,39.96
2023-05-13T03:05:46.462Z,39.95
2023-05-13T03:06:46.518Z,39.97
2023-05-13T03:07:46.604Z,39.96
2023-05-13T03:08:46.657Z,39.96
2023-05-13T03:09:46.711Z,39.96
2023-05-13T03:10:46.766Z,39.98
2023-05-13T03:11:46.887Z,39.97
2023-05-13T03:12:46.930Z,39.95
2023-05-13T03:13:46.956Z,39.97
2023-05-13T03:14:46.997Z,39.98
2023-05-13T03:15:47.073Z,39.98
2023-05-13T03:16:47.113Z,39.97
2023-05-13T03:17:47.228Z,39.99
2023-05-13T03:18:47.302Z,39.96
2023-05-13T03:19:47.309Z,39.96
2023-05-13T03:20:47.355Z,39.97
2023-05-13T03:21:47.408Z,39.99
2023-05-13T03:22:48.333Z,39.99
2023-05-13T03:23:47.550Z,39.97
2023-05-13T03:24:47.606Z,39.99
2023-05-13T03:25:47.676Z,40.00
2023-05-13T03:26:47.730Z,39.98
2023-05-13T03:27:47.777Z,40.01
2023-05-13T03:28:47.831Z,39.99
2023-05-13T03:29:47.866Z,40.00
2023-05-13T03:30:47.937Z,39.98
2023-05-13T03:31:49.275Z,40.00
2023-05-13T03:32:48.057Z,39.98
2023-05-13T03:33:48.109Z,39.99
2023-05-13T03:34:48.153Z,40.01
2023-05-13T03:35:48.208Z,39.98
2023-05-13T03:36:48.268Z,39.98
2023-05-13T03:37:48.330Z,39.99
2023-05-13T03:38:48.397Z,39.99
2023-05-13T03:39:48.444Z,39.98
2023-05-13T03:40:48.509Z,40.01
2023-05-13T03:41:48.574Z,40.02
2023-05-13T03:42:48.637Z,39.99
2023-05-13T03:43:48.793Z,40.02
2023-05-13T03:44:48.793Z,40.00
2023-05-13T03:45:48.854Z,40.01
2023-05-13T03:46:49.069Z,40.02
2023-05-13T03:47:49.042Z,40.00
2023-05-13T03:48:49.045Z,40.01
2023-05-13T03:49:51.073Z,40.02
2023-05-13T03:50:49.306Z,40.00
2023-05-13T03:51:49.218Z,40.02
2023-05-13T03:52:49.283Z,40.00
2023-05-13T03:53:49.323Z,40.03
2023-05-13T03:54:49.389Z,40.04
2023-05-13T03:55:49.445Z,40.01
2023-05-13T03:56:50.659Z,40.00
2023-05-13T03:57:49.576Z,39.99
2023-05-13T03:58:49.644Z,40.02
2023-05-13T03:59:49.694Z,40.04
2023-05-13T04:00:49.758Z,40.01
2023-05-13T04:01:49.859Z,40.03
2023-05-13T04:02:50.048Z,40.02
2023-05-13T04:03:49.936Z,40.03
2023-05-13T04:04:50.039Z,40.03
2023-05-13T04:05:50.026Z,40.02
2023-05-13T04:06:50.078Z,40.01
2023-05-13T04:07:50.130Z,40.01
2023-05-13T04:08:50.184Z,40.03
2023-05-13T04:09:50.650Z,40.02
2023-05-13T04:10:50.294Z,40.03
2023-05-13T04:11:50.344Z,40.06
2023-05-13T04:12:50.403Z,40.04
2023-05-13T04:13:50.467Z,40.03
2023-05-13T04:14:50.507Z,40.03
2023-05-13T04:15:50.565Z,40.05
2023-05-13T04:16:50.627Z,40.03
2023-05-13T04:17:50.688Z,40.04
2023-05-13T04:18:50.793Z,40.03
2023-05-13T04:19:50.785Z,40.04
2023-05-13T04:20:50.850Z,40.05
2023-05-13T04:21:50.896Z,40.04
2023-05-13T04:22:50.951Z,40.03
2023-05-13T04:23:51.002Z,40.04
2023-05-13T04:24:51.056Z,40.04
2023-05-13T04:25:51.139Z,40.02
2023-05-13T04:26:51.174Z,40.04
2023-05-13T04:27:51.230Z,40.05
2023-05-13T04:28:51.297Z,40.04
2023-05-13T04:29:51.358Z,40.04
2023-05-13T04:30:51.413Z,40.03
2023-05-13T04:31:51.502Z,40.04
2023-05-13T04:32:51.579Z,40.03
2023-05-13T04:33:51.597Z,40.03
2023-05-13T04:34:51.663Z,40.08
2023-05-13T04:35:51.729Z,40.05
2023-05-13T04:36:51.789Z,40.06
2023-05-13T04:37:51.861Z,40.04
2023-05-13T04:38:51.922Z,40.05
2023-05-13T04:39:51.985Z,40.06
2023-05-13T04:40:52.055Z,40.05
2023-05-13T04:41:52.115Z,40.05
2023-05-13T04:42:52.175Z,40.06
2023-05-13T04:43:52.245Z,40.05
2023-05-13T04:44:52.300Z,40.07
2023-05-13T04:45:52.392Z,40.07
2023-05-13T04:46:52.443Z,40.06
2023-05-13T04:47:52.573Z,40.08
2023-05-13T04:48:52.562Z,40.10
2023-05-13T04:49:52.627Z,40.06
2023-05-13T04:50:52.705Z,40.07
2023-05-13T04:51:52.763Z,40.07
2023-05-13T04:52:52.856Z,40.08
2023-05-13T04:53:52.892Z,40.03
2023-05-13T04:54:52.965Z,40.07
2023-05-13T04:55:53.032Z,40.06
2023-05-13T04:56:53.084Z,40.07
2023-05-13T04:57:53.146Z,40.08
2023-05-13T04:58:53.186Z,40.08
2023-05-13T04:59:53.248Z,40.07
2023-05-13T05:00:53.308Z,40.09
2023-05-13T05:01:53.414Z,40.08
2023-05-13T05:02:53.555Z,40.08
2023-05-13T05:03:53.540Z,40.08
2023-05-13T05:04:53.579Z,40.09
2023-05-13T05:05:53.633Z,40.09
2023-05-13T05:06:53.690Z,40.07
2023-05-13T05:07:55.398Z,40.08
2023-05-13T05:08:53.837Z,40.08
2023-05-13T05:09:53.889Z,40.08
2023-05-13T05:10:53.960Z,40.07
2023-05-13T05:11:54.029Z,40.08
2023-05-13T05:12:54.096Z,40.07
2023-05-13T05:13:54.185Z,40.09
2023-05-13T05:14:54.236Z,40.10
2023-05-13T05:15:54.319Z,40.10
2023-05-13T05:16:54.390Z,40.09
2023-05-13T05:17:56.691Z,40.10
2023-05-13T05:18:54.564Z,40.09
2023-05-13T05:19:54.554Z,40.08
2023-05-13T05:20:54.609Z,40.10
2023-05-13T05:21:54.669Z,40.10
2023-05-13T05:22:54.728Z,40.11
2023-05-13T05:23:54.794Z,40.08
2023-05-13T05:24:54.853Z,40.09
2023-05-13T05:26:04.201Z,40.09
2023-05-13T05:26:55.916Z,40.10
2023-05-13T05:27:54.940Z,40.11
2023-05-13T05:28:54.932Z,40.09
2023-05-13T05:29:54.923Z,40.10
2023-05-13T05:30:54.921Z,40.09
2023-05-13T05:31:55.002Z,40.10
2023-05-13T05:32:54.973Z,40.10
2023-05-13T05:33:54.931Z,40.12
2023-05-13T05:34:54.929Z,40.11
2023-05-13T05:35:54.935Z,40.10
2023-05-13T05:36:54.967Z,40.12
2023-05-13T05:37:55.321Z,40.10
2023-05-13T05:38:55.100Z,40.08
2023-05-13T05:39:55.156Z,40.12
2023-05-13T05:40:55.235Z,40.10
2023-05-13T05:41:55.277Z,40.11
2023-05-13T05:42:55.346Z,40.11
2023-05-13T05:43:55.399Z,40.10
2023-05-13T05:44:55.466Z,40.11
2023-05-13T05:45:55.611Z,40.12
2023-05-13T05:46:55.597Z,40.11
2023-05-13T05:47:55.680Z,40.11
2023-05-13T05:48:56.002Z,40.09
2023-05-13T05:49:55.797Z,40.10
2023-05-13T05:50:55.850Z,40.09
2023-05-13T05:51:55.938Z,40.11
2023-05-13T05:52:56.000Z,40.10
2023-05-13T05:53:56.072Z,40.11
2023-05-13T05:54:56.131Z,40.10
2023-05-13T05:55:56.202Z,40.11
2023-05-13T05:56:56.818Z,40.12
2023-05-13T05:57:56.321Z,40.08
2023-05-13T05:58:56.390Z,40.11
2023-05-13T05:59:56.449Z,40.11
2023-05-13T06:00:56.505Z,40.11
2023-05-13T06:01:56.599Z,40.10
2023-05-13T06:02:56.674Z,40.11
2023-05-13T06:03:56.722Z,40.09
2023-05-13T06:04:56.717Z,40.10
2023-05-13T06:05:57.700Z,40.10
2023-05-13T06:06:56.920Z,40.12
2023-05-13T06:07:57.910Z,40.11
2023-05-13T06:08:57.072Z,40.09
2023-05-13T06:09:57.040Z,40.11
2023-05-13T06:10:57.121Z,40.09
2023-05-13T06:11:57.172Z,40.08
2023-05-13T06:12:57.243Z,40.10
2023-05-13T06:13:57.325Z,40.10
2023-05-13T06:14:57.368Z,40.10
2023-05-13T06:15:57.530Z,40.09
2023-05-13T06:16:57.497Z,40.11
2023-05-13T06:17:57.601Z,40.12
2023-05-13T06:18:57.686Z,40.10
2023-05-13T06:19:57.684Z,40.09
2023-05-13T06:20:59.653Z,40.12
2023-05-13T06:21:57.923Z,40.07
2023-05-13T06:22:57.906Z,40.08
2023-05-13T06:23:57.955Z,40.11
2023-05-13T06:24:58.010Z,40.08
2023-05-13T06:25:58.086Z,40.10
2023-05-13T06:26:58.136Z,40.11
2023-05-13T06:27:58.728Z,40.08
2023-05-13T06:28:58.258Z,40.09
2023-05-13T06:29:58.307Z,40.10
2023-05-13T06:30:58.428Z,40.11
2023-05-13T06:31:59.750Z,40.08
2023-05-13T06:33:01.981Z,40.09
2023-05-13T06:33:58.498Z,40.10
2023-05-13T06:34:59.410Z,40.11
2023-05-13T06:35:58.493Z,40.09
2023-05-13T06:36:58.493Z,40.12
2023-05-13T06:37:58.518Z,40.09
2023-05-13T06:38:58.499Z,40.10
2023-05-13T06:39:58.492Z,40.09
2023-05-13T06:40:58.488Z,40.08
2023-05-13T06:41:58.505Z,40.10
2023-05-13T06:42:58.505Z,40.08
2023-05-13T06:43:58.517Z,40.09
2023-05-13T06:44:58.514Z,40.09
2023-05-13T06:45:58.518Z,40.08
2023-05-13T06:46:58.538Z,40.09
2023-05-13T06:47:58.574Z,40.09
2023-05-13T06:48:58.505Z,40.10
2023-05-13T06:49:58.507Z,40.09
2023-05-13T06:50:58.513Z,40.09
2023-05-13T06:51:58.522Z,40.09
2023-05-13T06:52:58.526Z,40.11
2023-05-13T06:53:58.539Z,40.08
2023-05-13T06:54:58.511Z,40.08
2023-05-13T06:55:58.522Z,40.10
2023-05-13T06:56:58.528Z,40.07
2023-05-13T06:57:58.520Z,40.07
2023-05-13T06:58:58.563Z,40.06
2023-05-13T06:59:58.623Z,40.07
2023-05-13T07:00:58.697Z,40.07
2023-05-13T07:01:58.750Z,40.07
2023-05-13T07:02:58.856Z,40.06
2023-05-13T07:04:00.749Z,40.06
2023-05-13T07:04:58.928Z,40.08
2023-05-13T07:05:59.000Z,40.07
2023-05-13T07:06:59.056Z,40.04
2023-05-13T07:07:59.130Z,40.05
2023-05-13T07:08:59.196Z,40.07
2023-05-13T07:09:59.268Z,40.07
2023-05-13T07:10:59.328Z,40.08
2023-05-13T07:11:59.378Z,40.06
2023-05-13T07:12:59.438Z,40.07
2023-05-13T07:13:59.499Z,40.07
2023-05-13T07:14:59.560Z,40.05
2023-05-13T07:15:59.631Z,40.06
2023-05-13T07:16:59.817Z,40.04
2023-05-13T07:17:59.792Z,40.06
2023-05-13T07:18:59.851Z,40.06
2023-05-13T07:19:59.880Z,40.06
2023-05-13T07:20:59.936Z,40.06
2023-05-13T07:22:00.009Z,40.05
2023-05-13T07:23:00.071Z,40.05
2023-05-13T07:24:00.143Z,40.06
2023-05-13T07:25:00.203Z,40.02
2023-05-13T07:26:00.277Z,40.06
2023-05-13T07:27:00.338Z,40.04
2023-05-13T07:28:00.957Z,40.04
2023-05-13T07:29:00.460Z,40.04
2023-05-13T07:30:00.556Z,40.04
2023-05-13T07:31:00.645Z,40.03
2023-05-13T07:32:00.644Z,40.03
2023-05-13T07:33:00.802Z,40.02
2023-05-13T07:34:00.777Z,40.00
2023-05-13T07:35:00.854Z,40.02
2023-05-13T07:36:00.907Z,40.04
2023-05-13T07:37:00.974Z,40.03
2023-05-13T07:38:01.032Z,40.03
2023-05-13T07:39:02.044Z,40.02
2023-05-13T07:40:01.147Z,40.01
2023-05-13T07:41:01.212Z,40.03
2023-05-13T07:42:01.285Z,40.01
2023-05-13T07:43:01.372Z,40.03
2023-05-13T07:44:01.458Z,40.04
2023-05-13T07:45:01.472Z,40.03
2023-05-13T07:46:01.526Z,40.06
2023-05-13T07:47:01.672Z,40.03
2023-05-13T07:48:01.767Z,40.02
2023-05-13T07:49:01.718Z,40.05
2023-05-13T07:50:01.793Z,40.02
2023-05-13T07:51:01.848Z,40.03
2023-05-13T07:52:01.904Z,40.00
2023-05-13T07:53:01.982Z,40.04
2023-05-13T07:54:02.031Z,40.01
2023-05-13T07:55:02.092Z,40.02
2023-05-13T07:56:02.137Z,40.01
2023-05-13T07:57:02.192Z,40.04
2023-05-13T07:58:02.262Z,40.03
2023-05-13T07:59:02.327Z,40.04
2023-05-13T08:00:02.383Z,40.03
2023-05-13T08:01:04.322Z,40.04
2023-05-13T08:02:02.500Z,40.05
2023-05-13T08:03:02.667Z,40.01
2023-05-13T08:04:02.704Z,40.04
2023-05-13T08:05:02.704Z,40.02
2023-05-13T08:06:02.742Z,40.03
2023-05-13T08:07:02.797Z,40.04
2023-05-13T08:08:02.861Z,40.04
2023-05-13T08:09:02.919Z,40.01
2023-05-13T08:10:02.982Z,40.03
2023-05-13T08:11:03.040Z,40.05
2023-05-13T08:12:03.118Z,40.02
2023-05-13T08:13:03.156Z,40.01
2023-05-13T08:14:03.222Z,40.01
2023-05-13T08:15:03.297Z,40.05
2023-05-13T08:16:03.360Z,40.03
2023-05-13T08:17:03.407Z,40.02
2023-05-13T08:18:03.535Z,40.04
2023-05-13T08:19:03.558Z,40.03
2023-05-13T08:20:04.769Z,40.00
2023-05-13T08:21:03.620Z,40.03
2023-05-13T08:22:03.679Z,40.05
2023-05-13T08:23:03.729Z,40.05
2023-05-13T08:24:03.794Z,40.05
2023-05-13T08:25:03.856Z,40.03
2023-05-13T08:26:03.907Z,40.02
2023-05-13T08:27:03.972Z,40.04
2023-05-13T08:28:04.035Z,40.03
2023-05-13T08:29:04.093Z,40.04
2023-05-13T08:30:04.149Z,40.03
2023-05-13T08:31:04.188Z,40.04
2023-05-13T08:32:04.291Z,40.05
2023-05-13T08:33:04.391Z,40.04
2023-05-13T08:34:04.388Z,40.04
2023-05-13T08:35:04.457Z,40.03
2023-05-13T08:36:04.515Z,40.05
2023-05-13T08:37:04.587Z,40.05
2023-05-13T08:38:04.637Z,40.02
2023-05-13T08:39:05.778Z,40.05
2023-05-13T08:40:04.756Z,40.05
2023-05-13T08:41:04.803Z,40.05
2023-05-13T08:42:04.857Z,40.05
2023-05-13T08:43:04.905Z,40.04
2023-05-13T08:44:04.965Z,40.05
2023-05-13T08:45:05.085Z,40.04
2023-05-13T08:46:05.448Z,40.07
2023-05-13T08:47:05.142Z,40.02
2023-05-13T08:48:05.229Z,40.05
2023-05-13T08:49:05.255Z,40.04
2023-05-13T08:50:05.346Z,40.03
2023-05-13T08:51:05.392Z,40.03
2023-05-13T08:52:05.453Z,40.04
2023-05-13T08:53:05.504Z,40.02
2023-05-13T08:54:05.571Z,40.04
2023-05-13T08:55:05.626Z,40.04
2023-05-13T08:56:05.674Z,40.01
2023-05-13T08:57:05.729Z,40.01
2023-05-13T08:58:05.789Z,40.05
2023-05-13T08:59:05.851Z,40.03
2023-05-13T09:00:05.903Z,40.04
2023-05-13T09:01:06.020Z,40.03
2023-05-13T09:02:06.050Z,40.03
2023-05-13T09:03:06.137Z,40.03
2023-05-13T09:04:06.189Z,40.04
2023-05-13T09:05:06.284Z,40.02
2023-05-13T09:06:06.313Z,40.03
2023-05-13T09:07:06.365Z,40.05
2023-05-13T09:08:06.432Z,40.05
2023-05-13T09:09:06.504Z,40.05
2023-05-13T09:10:06.581Z,40.03
2023-05-13T09:11:06.639Z,40.03
2023-05-13T09:12:06.704Z,40.04
2023-05-13T09:13:06.760Z,40.02
2023-05-13T09:14:06.843Z,40.04
2023-05-13T09:15:06.908Z,40.06
2023-05-13T09:16:07.013Z,40.04
2023-05-13T09:17:07.025Z,40.04
2023-05-13T09:18:07.163Z,40.02
2023-05-13T09:19:07.229Z,40.05
2023-05-13T09:20:07.287Z,40.02
2023-05-13T09:21:07.284Z,40.02
2023-05-13T09:22:07.348Z,40.01
2023-05-13T09:23:07.420Z,40.03
2023-05-13T09:24:08.904Z,40.03
2023-05-13T09:25:07.492Z,40.04
2023-05-13T09:26:07.479Z,40.02
2023-05-13T09:27:07.480Z,40.03
2023-05-13T09:28:07.488Z,40.01
2023-05-13T09:29:07.486Z,40.03
2023-05-13T09:30:07.511Z,40.03
2023-05-13T09:31:07.559Z,40.02
2023-05-13T09:32:07.514Z,40.02
2023-05-13T09:33:07.573Z,40.02
2023-05-13T09:34:07.500Z,40.03
2023-05-13T09:35:07.483Z,40.01
2023-05-13T09:36:07.496Z,40.02
2023-05-13T09:37:07.498Z,40.02
2023-05-13T09:38:09.714Z,40.01
2023-05-13T09:39:07.497Z,40.01
2023-05-13T09:40:07.570Z,40.02
2023-05-13T09:41:07.502Z,40.02
2023-05-13T09:42:07.514Z,40.04
2023-05-13T09:43:07.558Z,40.01
2023-05-13T09:44:07.625Z,40.01
2023-05-13T09:45:07.681Z,40.03
2023-05-13T09:46:07.743Z,40.03
2023-05-13T09:47:07.904Z,40.02
2023-05-13T09:48:07.920Z,40.02
2023-05-13T09:49:07.951Z,40.02
2023-05-13T09:50:08.038Z,40.01
2023-05-13T09:51:08.073Z,40.02
2023-05-13T09:52:08.125Z,39.99
2023-05-13T09:53:08.195Z,40.00
2023-05-13T09:54:08.289Z,40.02
2023-05-13T09:55:08.309Z,40.01
2023-05-13T09:56:08.385Z,40.00
2023-05-13T09:57:08.441Z,40.01
2023-05-13T09:58:08.484Z,40.01
2023-05-13T09:59:08.614Z,40.00
2023-05-13T10:00:15.028Z,40.01
2023-05-13T10:01:09.625Z,40.03
2023-05-13T10:02:08.608Z,40.03
2023-05-13T10:03:08.638Z,40.01
2023-05-13T10:04:08.622Z,40.02
2023-05-13T10:05:08.683Z,40.03
2023-05-13T10:06:08.600Z,40.01
2023-05-13T10:07:08.590Z,40.04
2023-05-13T10:08:08.588Z,40.05
2023-05-13T10:09:08.589Z,40.03
2023-05-13T10:10:08.595Z,40.03
2023-05-13T10:11:08.669Z,40.03
2023-05-13T10:12:08.738Z,40.06
2023-05-13T10:13:08.804Z,40.03
2023-05-13T10:14:08.854Z,40.04
2023-05-13T10:15:08.913Z,40.02
2023-05-13T10:16:08.983Z,40.04
2023-05-13T10:17:09.029Z,40.04
2023-05-13T10:18:09.134Z,40.05
2023-05-13T10:19:09.277Z,40.04
2023-05-13T10:20:09.212Z,40.08
2023-05-13T10:21:09.275Z,40.08
2023-05-13T10:22:09.340Z,40.06
2023-05-13T10:23:09.391Z,40.04
2023-05-13T10:24:09.467Z,40.08
2023-05-13T10:25:09.528Z,40.07
2023-05-13T10:26:09.591Z,40.06
2023-05-13T10:27:09.650Z,40.07
2023-05-13T10:28:09.716Z,40.05
2023-05-13T10:29:09.777Z,40.07
2023-05-13T10:30:09.849Z,40.07
2023-05-13T10:31:09.897Z,40.09
2023-05-13T10:32:10.075Z,40.07
2023-05-13T10:33:10.036Z,40.09
2023-05-13T10:34:10.079Z,40.09
2023-05-13T10:35:10.142Z,40.07
2023-05-13T10:36:10.211Z,40.08
2023-05-13T10:37:10.271Z,40.07
2023-05-13T10:38:10.345Z,40.09
2023-05-13T10:39:10.408Z,40.06
2023-05-13T10:40:10.481Z,40.07
2023-05-13T10:41:10.550Z,40.08
2023-05-13T10:42:10.625Z,40.07
2023-05-13T10:43:10.672Z,40.08
2023-05-13T10:44:10.702Z,40.08
2023-05-13T10:45:10.765Z,40.06
2023-05-13T10:46:10.811Z,40.08
2023-05-13T10:47:10.851Z,40.08
2023-05-13T10:48:11.040Z,40.05
2023-05-13T10:49:10.958Z,40.06
2023-05-13T10:50:11.010Z,40.04
2023-05-13T10:51:11.071Z,40.05
2023-05-13T10:52:12.814Z,40.05
2023-05-13T10:53:11.196Z,40.05
2023-05-13T10:54:11.258Z,40.04
2023-05-13T10:55:11.341Z,40.01
2023-05-13T10:56:11.375Z,40.03
2023-05-13T10:57:11.459Z,40.03
2023-05-13T10:58:11.526Z,40.03
2023-05-13T10:59:11.587Z,40.03
2023-05-13T11:00:11.654Z,40.03
2023-05-13T11:01:11.749Z,40.03
2023-05-13T11:02:11.787Z,40.02
2023-05-13T11:03:11.957Z,40.01
2023-05-13T11:04:12.010Z,39.99
2023-05-13T11:05:11.979Z,40.03
2023-05-13T11:06:12.296Z,40.01
2023-05-13T11:07:12.109Z,40.01
2023-05-13T11:08:12.174Z,40.01
2023-05-13T11:09:12.233Z,40.00
2023-05-13T11:10:12.292Z,40.01
2023-05-13T11:11:12.368Z,40.01
2023-05-13T11:12:12.432Z,39.99
2023-05-13T11:13:12.509Z,40.00
2023-05-13T11:14:13.518Z,39.99
2023-05-13T11:15:12.627Z,39.98
2023-05-13T11:16:12.710Z,40.00
2023-05-13T11:17:12.772Z,39.99
2023-05-13T11:18:12.863Z,40.01
2023-05-13T11:19:12.956Z,39.99
2023-05-13T11:20:12.941Z,39.99
2023-05-13T11:21:13.006Z,39.98
2023-05-13T11:22:13.085Z,39.98
2023-05-13T11:23:13.138Z,39.99
2023-05-13T11:24:13.189Z,40.00
2023-05-13T11:25:13.299Z,40.00
2023-05-13T11:26:13.324Z,40.00
2023-05-13T11:27:13.388Z,39.99
2023-05-13T11:28:13.448Z,39.99
2023-05-13T11:29:13.504Z,39.97
2023-05-13T11:30:13.612Z,39.98
2023-05-13T11:31:13.633Z,39.99
2023-05-13T11:32:13.694Z,39.97
2023-05-13T11:33:13.751Z,40.01
2023-05-13T11:34:13.805Z,39.99
2023-05-13T11:35:13.855Z,40.00
2023-05-13T11:36:13.923Z,39.98
2023-05-13T11:37:13.973Z,40.00
2023-05-13T11:38:14.037Z,40.00
2023-05-13T11:39:14.095Z,39.98
2023-05-13T11:40:14.238Z,39.99
2023-05-13T11:41:14.224Z,39.99
2023-05-13T11:42:16.397Z,39.97
2023-05-13T11:43:14.327Z,39.94
2023-05-13T11:44:14.409Z,39.96
2023-05-13T11:45:14.460Z,39.98
2023-05-13T11:46:14.581Z,39.96
2023-05-13T11:47:14.586Z,39.97
2023-05-13T11:48:14.646Z,39.95
2023-05-13T11:49:14.706Z,39.94
2023-05-13T11:50:14.766Z,39.94
2023-05-13T11:51:15.860Z,39.94
2023-05-13T11:52:14.888Z,39.93
2023-05-13T11:53:14.954Z,39.92
2023-05-13T11:54:15.015Z,39.94
2023-05-13T11:55:15.082Z,39.91
2023-05-13T11:56:15.159Z,39.91
2023-05-13T11:57:15.204Z,39.91
2023-05-13T11:58:15.260Z,39.89
2023-05-13T11:59:15.338Z,39.90
2023-05-13T12:00:15.380Z,39.87
2023-05-13T12:01:15.438Z,39.87
2023-05-13T12:02:15.525Z,39.85
2023-05-13T12:03:15.590Z,39.82
2023-05-13T12:04:15.601Z,39.82
2023-05-13T12:05:15.706Z,39.83
2023-05-13T12:06:15.738Z,39.81
2023-05-13T12:07:15.804Z,39.82
2023-05-13T12:08:15.858Z,39.82
2023-05-13T12:09:15.915Z,39.81
2023-05-13T12:10:15.919Z,39.80
2023-05-13T12:11:16.008Z,39.79
2023-05-13T12:12:17.866Z,39.76
2023-05-13T12:13:16.074Z,39.76
2023-05-13T12:14:16.136Z,39.78
2023-05-13T12:15:16.177Z,39.76
2023-05-13T12:16:16.256Z,39.75
2023-05-13T12:17:16.285Z,39.73
2023-05-13T12:18:16.408Z,39.74
2023-05-13T12:19:16.456Z,39.71
2023-05-13T12:20:16.434Z,39.73
2023-05-13T12:21:16.492Z,39.74
2023-05-13T12:22:16.536Z,39.71
2023-05-13T12:23:16.572Z,39.71
2023-05-13T12:24:16.626Z,39.71
2023-05-13T12:25:16.672Z,39.69
2023-05-13T12:26:16.729Z,39.72
2023-05-13T12:27:16.783Z,39.72
2023-05-13T12:28:17.216Z,39.70
2023-05-13T12:29:16.896Z,39.69
2023-05-13T12:30:16.931Z,39.70
2023-05-13T12:31:17.014Z,39.72
2023-05-13T12:32:17.033Z,39.70
2023-05-13T12:33:17.094Z,39.73
2023-05-13T12:34:17.107Z,39.71
2023-05-13T12:35:17.158Z,39.71
2023-05-13T12:36:17.268Z,39.71
2023-05-13T12:37:17.254Z,39.70
2023-05-13T12:38:17.312Z,39.70
2023-05-13T12:39:17.345Z,39.71
2023-05-13T12:40:17.385Z,39.71
2023-05-13T12:41:17.446Z,39.70
2023-05-13T12:42:17.490Z,39.73
2023-05-13T12:43:17.514Z,39.69
2023-05-13T12:44:17.573Z,39.70
2023-05-13T12:45:17.616Z,39.70
2023-05-13T12:46:17.679Z,39.68
2023-05-13T12:47:17.699Z,39.73
2023-05-13T12:48:17.752Z,39.69
2023-05-13T12:49:17.787Z,39.73
2023-05-13T12:50:17.841Z,39.70
2023-05-13T12:51:17.890Z,39.71
2023-05-13T12:52:17.935Z,39.68
2023-05-13T12:53:17.982Z,39.70